Time;durP1;ratioP1;P1;durP2;ratioP2;P2;SDS_P1;SDS_P2;PMS_P1;PMS_P2;Temp;Humidity;BMP_temperature;BMP_pressure;BME280_temperature;BME280_humidity;BME280_pressure;Samples;Min_cycle;Max_cycle;Signal;HPM_P1;HPM_P2
2020/12/27 00:00:15;;;;;;;5.93;5.43;;;;;;;10.63;nan;100578.44;5020252;28;97756;-72
2020/12/27 00:02:43;;;;;;;7.18;5.57;;;;;;;10.59;nan;100591.31;5019443;28;97773;-72
2020/12/27 00:05:12;;;;;;;8.20;6.40;;;;;;;10.54;nan;100577.06;5020159;28;97343;-72
2020/12/27 00:07:39;;;;;;;6.28;5.88;;;;;;;10.51;nan;100567.28;5017859;28;97923;-72
2020/12/27 00:10:07;;;;;;;6.50;5.32;;;;;;;10.45;nan;100564.38;5019173;28;98163;-72
2020/12/27 00:12:34;;;;;;;5.85;5.15;;;;;;;10.43;nan;100565.13;5019001;28;97321;-72
2020/12/27 00:15:03;;;;;;;6.63;6.03;;;;;;;10.43;nan;100560.78;5020293;28;97229;-72
2020/12/27 00:17:30;;;;;;;6.18;5.68;;;;;;;10.38;nan;100566.63;5018666;28;98047;-72
2020/12/27 00:19:58;;;;;;;5.93;5.30;;;;;;;10.33;nan;100562.88;5019030;28;98964;-72
2020/12/27 00:22:27;;;;;;;6.03;5.45;;;;;;;10.32;nan;100553.19;5020055;28;96776;-73
2020/12/27 00:24:54;;;;;;;6.53;6.03;;;;;;;10.30;nan;100546.94;5019277;28;97789;-72
2020/12/27 00:27:22;;;;;;;6.38;5.88;;;;;;;10.30;nan;100539.06;5014776;28;99243;-72
2020/12/27 00:29:49;;;;;;;5.82;5.43;;;;;;;10.33;nan;100537.50;5013760;27;98971;-72
2020/12/27 00:32:17;;;;;;;6.13;5.72;;;;;;;10.36;nan;100539.38;5019261;28;96864;-72
2020/12/27 00:34:52;;;;;;;5.40;5.00;;;;;;;10.31;nan;100523.38;5002008;28;96819;-72
2020/12/27 00:37:19;;;;;;;5.68;5.20;;;;;;;10.28;nan;100512.75;4988699;28;98701;-72
2020/12/27 00:39:49;;;;;;;5.97;5.40;;;;;;;10.28;nan;100502.25;5018372;28;98054;-72
2020/12/27 00:42:17;;;;;;;6.00;5.43;;;;;;;10.25;nan;100491.63;5021112;28;97141;-72
2020/12/27 00:44:45;;;;;;;5.70;5.20;;;;;;;10.28;nan;100491.75;5020530;28;97730;-72
2020/12/27 00:47:13;;;;;;;6.40;5.80;;;;;;;10.28;nan;100478.63;5016548;28;99210;-71
2020/12/27 00:49:41;;;;;;;6.85;6.20;;;;;;;10.34;nan;100483.28;5017689;28;98523;-72
2020/12/27 00:52:08;;;;;;;6.50;6.10;;;;;;;10.40;nan;100473.09;5020015;28;97548;-72
2020/12/27 00:54:35;;;;;;;6.43;5.93;;;;;;;10.43;nan;100465.34;5018461;28;96858;-72
2020/12/27 00:57:04;;;;;;;5.43;5.03;;;;;;;10.43;nan;100460.09;5000391;28;99066;-72
2020/12/27 00:59:33;;;;;;;6.18;5.70;;;;;;;10.50;nan;100452.59;5020559;27;99526;-73
2020/12/27 01:02:02;;;;;;;6.10;5.68;;;;;;;10.54;nan;100437.88;5013034;28;97373;-72
2020/12/27 01:04:48;;;;;;;5.00;4.60;;;;;;;10.56;nan;100442.38;5019707;28;96855;-72
2020/12/27 01:07:23;;;;;;;5.20;4.80;;;;;;;10.58;nan;100435.47;4999933;28;98341;-73
2020/12/27 01:10:06;;;;;;;4.68;4.38;;;;;;;10.60;nan;100428.53;5000830;28;99148;-72
2020/12/27 01:12:35;;;;;;;4.85;4.55;;;;;;;10.62;nan;100421.63;5001123;28;96914;-72
2020/12/27 01:15:02;;;;;;;4.78;4.47;;;;;;;10.62;nan;100402.38;5001653;28;96747;-71
2020/12/27 01:17:53;;;;;;;4.80;4.60;;;;;;;10.61;nan;100401.47;5010468;28;98791;-72
2020/12/27 01:20:57;;;;;;;4.20;4.00;;;;;;;10.64;nan;100388.47;5020068;28;97823;-72
2020/12/27 01:23:25;;;;;;;4.80;4.50;;;;;;;10.64;nan;100382.31;5000845;28;97378;-72
2020/12/27 01:25:53;;;;;;;4.43;4.22;;;;;;;10.63;nan;100375.28;5019834;28;97547;-71
2020/12/27 01:28:21;;;;;;;5.18;4.57;;;;;;;10.64;nan;100369.19;4995909;28;97420;-72
2020/12/27 01:30:56;;;;;;;4.53;4.25;;;;;;;10.65;nan;100360.47;5000036;28;98328;-72
2020/12/27 01:33:33;;;;;;;5.25;4.85;;;;;;;10.64;nan;100358.66;5000540;28;97660;-72
2020/12/27 01:36:24;;;;;;;5.05;4.80;;;;;;;10.60;nan;100349.75;5019289;28;97232;-71
2020/12/27 01:38:53;;;;;;;5.30;4.97;;;;;;;10.63;nan;100354.25;4985537;28;97638;-71
2020/12/27 01:41:21;;;;;;;5.10;4.63;;;;;;;10.61;nan;100343.69;5025212;27;99024;-72
2020/12/27 01:44:04;;;;;;;4.70;4.47;;;;;;;10.59;nan;100347.97;5000711;28;99453;-71
2020/12/27 01:46:33;;;;;;;4.93;4.60;;;;;;;10.61;nan;100343.69;4985791;28;98546;-71
2020/12/27 01:49:05;;;;;;;5.28;4.93;;;;;;;10.62;nan;100347.22;4998311;28;99681;-71
2020/12/27 01:51:33;;;;;;;5.40;5.03;;;;;;;10.61;nan;100338.44;4985839;28;97972;-72
2020/12/27 01:54:01;;;;;;;4.60;4.30;;;;;;;10.59;nan;100319.09;4999578;28;97844;-71
2020/12/27 01:56:50;;;;;;;4.90;4.53;;;;;;;10.55;nan;100308.34;5017532;28;97247;-71
2020/12/27 01:59:24;;;;;;;5.47;5.13;;;;;;;10.50;nan;100295.03;4997709;28;100162;-71
2020/12/27 02:01:56;;;;;;;4.80;4.60;;;;;;;10.44;nan;100284.25;4986985;28;99272;-71
2020/12/27 02:04:42;;;;;;;5.43;4.93;;;;;;;10.42;nan;100275.38;5018542;28;97317;-72
2020/12/27 02:07:12;;;;;;;5.72;5.15;;;;;;;10.37;nan;100271.66;4993090;28;97346;-71
2020/12/27 02:10:12;;;;;;;5.47;5.18;;;;;;;10.35;nan;100267.16;5014031;28;99228;-71
2020/12/27 02:12:41;;;;;;;4.88;4.68;;;;;;;10.31;nan;100271.38;5024717;27;97841;-70
2020/12/27 02:15:10;;;;;;;5.43;5.03;;;;;;;10.34;nan;100265.38;4987751;28;98362;-71
2020/12/27 02:17:56;;;;;;;6.03;5.43;;;;;;;10.28;nan;100255.50;5015482;28;98332;-71
2020/12/27 02:20:32;;;;;;;5.28;4.88;;;;;;;10.33;nan;100251.34;4999191;28;99025;-71
2020/12/27 02:23:10;;;;;;;5.28;4.88;;;;;;;10.36;nan;100253.22;5000498;28;99127;-71
2020/12/27 02:25:45;;;;;;;5.38;5.05;;;;;;;10.37;nan;100257.63;4999284;28;97484;-71
2020/12/27 02:28:24;;;;;;;5.38;4.75;;;;;;;10.37;nan;100237.53;4985977;28;97244;-70
2020/12/27 02:30:51;;;;;;;5.63;5.13;;;;;;;10.37;nan;100240.16;5000926;28;98051;-70
2020/12/27 02:33:20;;;;;;;4.93;4.53;;;;;;;10.40;nan;100228.91;4999527;28;97670;-71
2020/12/27 02:36:00;;;;;;;5.40;4.90;;;;;;;10.41;nan;100223.72;4999847;28;98735;-72
2020/12/27 02:38:28;;;;;;;4.93;4.60;;;;;;;10.41;nan;100207.97;4997667;28;98164;-70
2020/12/27 02:40:57;;;;;;;5.90;5.40;;;;;;;10.45;nan;100207.28;4994910;28;97838;-71
2020/12/27 02:43:42;;;;;;;5.25;4.75;;;;;;;10.44;nan;100200.22;5016872;27;100981;-71
2020/12/27 02:46:19;;;;;;;5.55;5.15;;;;;;;10.47;nan;100186.34;4999939;28;97485;-71
2020/12/27 02:49:05;;;;;;;5.30;4.90;;;;;;;10.49;nan;100179.44;5015801;28;97938;-71
2020/12/27 02:51:33;;;;;;;5.22;4.93;;;;;;;10.50;nan;100178.59;5018558;28;97756;-71
2020/12/27 02:54:01;;;;;;;5.60;5.10;;;;;;;10.52;nan;100182.19;5017799;28;98275;-71
2020/12/27 02:56:33;;;;;;;5.95;5.45;;;;;;;10.55;nan;100172.69;4999289;28;97873;-71
2020/12/27 02:59:02;;;;;;;5.40;4.97;;;;;;;10.56;nan;100174.53;4967268;28;97395;-70
2020/12/27 03:01:31;;;;;;;6.03;5.60;;;;;;;10.61;nan;100151.97;4998817;27;97926;-70
2020/12/27 03:04:17;;;;;;;5.03;4.70;;;;;;;10.64;nan;100151.19;5018042;27;97925;-70
2020/12/27 03:06:49;;;;;;;5.10;4.60;;;;;;;10.65;nan;100142.50;4997773;28;97356;-70
2020/12/27 03:09:25;;;;;;;5.20;4.90;;;;;;;10.64;nan;100149.47;4998819;28;97223;-70
2020/12/27 03:12:08;;;;;;;4.85;4.60;;;;;;;10.64;nan;100148.56;4998451;28;97150;-71
2020/12/27 03:15:12;;;;;;;5.13;4.82;;;;;;;10.59;nan;100132.63;5017582;28;96771;-72
2020/12/27 03:17:59;;;;;;;5.95;4.68;;;;;;;10.63;nan;100129.28;5015823;28;97216;-70
2020/12/27 03:20:45;;;;;;;5.22;4.85;;;;;;;10.63;nan;100120.50;5018222;28;97097;-70
2020/12/27 03:23:15;;;;;;;5.28;4.93;;;;;;;10.64;nan;100114.41;4998714;28;99185;-71
2020/12/27 03:25:49;;;;;;;5.50;5.10;;;;;;;10.65;nan;100127.63;4998717;28;97913;-71
2020/12/27 03:28:18;;;;;;;5.45;5.05;;;;;;;10.68;nan;100116.34;5016285;28;97484;-72
2020/12/27 03:30:52;;;;;;;5.88;5.38;;;;;;;10.71;nan;100116.50;5018538;27;97373;-72
2020/12/27 03:33:27;;;;;;;4.82;4.55;;;;;;;10.71;nan;100100.72;5002518;28;99083;-71
2020/12/27 03:35:58;;;;;;;5.50;5.10;;;;;;;10.72;nan;100094.63;5002452;28;97897;-71
2020/12/27 03:38:32;;;;;;;5.35;4.85;;;;;;;10.71;nan;100075.34;5000063;28;97041;-70
2020/12/27 03:41:20;;;;;;;5.15;4.85;;;;;;;10.75;nan;100053.63;5020804;28;97890;-71
2020/12/27 03:43:58;;;;;;;4.85;4.55;;;;;;;10.72;nan;100047.34;5002813;28;99346;-71
2020/12/27 03:46:51;;;;;;;5.50;5.20;;;;;;;10.73;nan;100036.91;5018168;28;98080;-73
2020/12/27 03:49:51;;;;;;;5.18;4.78;;;;;;;10.73;nan;100029.03;4994964;28;97264;-71
2020/12/27 03:52:32;;;;;;;4.80;4.45;;;;;;;10.69;nan;100016.59;5002989;28;97468;-73
2020/12/27 03:55:28;;;;;;;4.93;4.63;;;;;;;10.70;nan;99993.84;5007060;28;99446;-71
2020/12/27 03:58:25;;;;;;;5.85;5.35;;;;;;;10.73;nan;99988.75;4963748;28;97987;-73
2020/12/27 04:01:01;;;;;;;5.85;5.25;;;;;;;10.75;nan;99992.31;5021163;28;97828;-71
2020/12/27 04:03:32;;;;;;;5.15;4.75;;;;;;;10.78;nan;99981.94;5002428;28;97693;-72
2020/12/27 04:06:07;;;;;;;6.18;5.60;;;;;;;10.81;nan;99969.81;5017780;28;99005;-73
2020/12/27 04:08:37;;;;;;;5.00;4.70;;;;;;;10.78;nan;99967.09;5000688;28;97844;-70
2020/12/27 04:11:06;;;;;;;4.70;4.38;;;;;;;10.76;nan;99959.97;5002448;28;97560;-71
2020/12/27 04:13:36;;;;;;;4.63;4.32;;;;;;;10.72;nan;99952.78;5003095;28;97710;-71
2020/12/27 04:16:11;;;;;;;4.53;4.22;;;;;;;10.70;nan;99958.00;5001820;28;97812;-71
2020/12/27 04:18:39;;;;;;;5.88;4.45;;;;;;;10.71;nan;99946.63;4999363;28;99109;-71
2020/12/27 04:21:31;;;;;;;5.22;4.82;;;;;;;10.66;nan;99944.66;5002304;28;97380;-73
2020/12/27 04:24:07;;;;;;;5.18;4.78;;;;;;;10.58;nan;99935.59;5020863;28;97360;-74
2020/12/27 04:26:53;;;;;;;4.82;4.53;;;;;;;10.57;nan;99934.69;5019438;28;99221;-74
2020/12/27 04:29:21;;;;;;;5.22;4.82;;;;;;;10.52;nan;99927.47;4999505;28;99355;-73
2020/12/27 04:31:54;;;;;;;4.72;4.43;;;;;;;10.52;nan;99923.13;5002561;28;98046;-73
2020/12/27 04:35:01;;;;;;;5.25;4.65;;;;;;;10.52;nan;99903.84;4945062;28;97018;-73
2020/12/27 04:37:34;;;;;;;4.97;4.68;;;;;;;10.51;nan;99909.94;4943715;28;97873;-73
2020/12/27 04:40:15;;;;;;;5.22;4.75;;;;;;;10.52;nan;99901.22;4978768;28;98526;-73
2020/12/27 04:42:48;;;;;;;5.10;4.80;;;;;;;10.52;nan;99895.97;5002468;28;97552;-72
2020/12/27 04:45:25;;;;;;;5.72;5.32;;;;;;;10.49;nan;99873.09;5002548;28;97495;-73
2020/12/27 04:48:10;;;;;;;5.38;4.88;;;;;;;10.49;nan;99872.22;4988247;28;99238;-74
2020/12/27 04:50:55;;;;;;;5.80;5.32;;;;;;;10.48;nan;99873.06;4990659;28;98295;-72
2020/12/27 04:53:23;;;;;;;6.00;5.45;;;;;;;10.47;nan;99873.91;5019428;28;97191;-72
2020/12/27 04:55:54;;;;;;;5.80;5.40;;;;;;;10.47;nan;99873.91;5002108;28;97292;-72
2020/12/27 04:58:38;;;;;;;5.75;5.22;;;;;;;10.44;nan;99872.03;5012038;27;99020;-72
2020/12/27 05:01:11;;;;;;;5.00;4.70;;;;;;;10.45;nan;99870.31;5000189;27;98998;-72
2020/12/27 05:04:07;;;;;;;5.70;5.30;;;;;;;10.48;nan;99857.31;5001237;27;97291;-72
2020/12/27 05:06:53;;;;;;;5.55;5.15;;;;;;;10.48;nan;99836.28;4983717;28;97907;-73
2020/12/27 05:09:29;;;;;;;6.20;5.60;;;;;;;10.45;nan;99844.06;4999123;28;97865;-73
2020/12/27 05:11:57;;;;;;;5.90;5.38;;;;;;;10.44;nan;99821.28;5001456;28;97760;-73
2020/12/27 05:14:26;;;;;;;5.47;4.82;;;;;;;10.40;nan;99820.25;5000893;28;96813;-73
2020/12/27 05:16:58;;;;;;;6.10;5.25;;;;;;;10.41;nan;99813.28;5001787;28;97993;-72
2020/12/27 05:19:45;;;;;;;5.00;4.50;;;;;;;10.40;nan;99809.75;5017490;28;101054;-73
2020/12/27 05:22:12;;;;;;;6.03;5.50;;;;;;;10.43;nan;99816.84;5000978;28;97804;-72
2020/12/27 05:24:58;;;;;;;5.72;5.20;;;;;;;10.45;nan;99808.22;5019473;28;97149;-72
2020/12/27 05:27:49;;;;;;;5.80;5.15;;;;;;;10.48;nan;99796.91;4991834;28;97379;-72
2020/12/27 05:30:36;;;;;;;6.72;6.00;;;;;;;10.46;nan;99789.00;5017606;28;99166;-73
2020/12/27 05:33:22;;;;;;;6.43;5.85;;;;;;;10.44;nan;99780.16;5019958;28;98921;-72
2020/12/27 05:36:11;;;;;;;6.65;5.45;;;;;;;10.43;nan;99787.97;5019745;28;97630;-72
2020/12/27 05:39:01;;;;;;;6.00;5.60;;;;;;;10.45;nan;99767.94;5001365;28;97973;-72
2020/12/27 05:41:45;;;;;;;6.22;5.72;;;;;;;10.45;nan;99773.19;4989024;28;98460;-72
2020/12/27 05:44:19;;;;;;;6.05;5.45;;;;;;;10.45;nan;99762.69;5000445;28;98401;-72
2020/12/27 05:46:52;;;;;;;5.82;5.43;;;;;;;10.43;nan;99762.63;4999290;28;98021;-72
2020/12/27 05:49:24;;;;;;;7.72;5.65;;;;;;;10.44;nan;99766.16;4999725;28;97373;-72
2020/12/27 05:51:58;;;;;;;6.80;6.30;;;;;;;10.44;nan;99774.03;5017679;28;98052;-72
2020/12/27 05:54:31;;;;;;;6.63;6.03;;;;;;;10.43;nan;99767.88;4987370;28;97734;-71
2020/12/27 05:57:03;;;;;;;6.63;6.03;;;;;;;10.47;nan;99763.63;4999904;28;96754;-72
2020/12/27 05:59:34;;;;;;;7.45;6.80;;;;;;;10.46;nan;99756.56;4986747;28;97391;-72
2020/12/27 06:02:24;;;;;;;6.82;6.22;;;;;;;10.46;nan;99749.59;5001011;28;99047;-72
2020/12/27 06:05:01;;;;;;;6.80;6.20;;;;;;;10.47;nan;99747.88;5016305;28;97896;-71
2020/12/27 06:07:35;;;;;;;7.50;6.80;;;;;;;10.49;nan;99759.34;5018491;28;98145;-71
2020/12/27 06:10:05;;;;;;;7.50;6.80;;;;;;;10.51;nan;99745.41;4999674;28;97108;-71
2020/12/27 06:12:53;;;;;;;7.15;6.45;;;;;;;10.51;nan;99728.78;4999311;28;97605;-72
2020/12/27 06:15:25;;;;;;;8.27;5.90;;;;;;;10.51;nan;99724.41;4999436;28;97484;-72
2020/12/27 06:18:12;;;;;;;6.72;6.22;;;;;;;10.49;nan;99699.81;5016358;28;97709;-72
2020/12/27 06:21:07;;;;;;;7.03;6.20;;;;;;;10.48;nan;99691.91;4998862;28;96903;-71
2020/12/27 06:23:40;;;;;;;7.88;7.05;;;;;;;10.48;nan;99681.41;4999899;28;97789;-72
2020/12/27 06:26:11;;;;;;;7.38;6.68;;;;;;;10.48;nan;99666.53;5000152;28;97809;-72
2020/12/27 06:28:48;;;;;;;7.57;6.97;;;;;;;10.48;nan;99660.41;4998312;28;97721;-72
2020/12/27 06:31:34;;;;;;;6.32;5.63;;;;;;;10.44;nan;99667.28;5018839;28;97805;-73
2020/12/27 06:34:11;;;;;;;8.57;7.15;;;;;;;10.43;nan;99644.50;5000117;28;100155;-72
2020/12/27 06:36:51;;;;;;;9.52;7.30;;;;;;;10.44;nan;99633.16;4984238;28;97711;-72
2020/12/27 06:39:43;;;;;;;7.35;6.63;;;;;;;10.43;nan;99622.59;4987661;28;97428;-72
2020/12/27 06:42:19;;;;;;;7.88;7.07;;;;;;;10.44;nan;99619.16;4990965;28;97811;-72
2020/12/27 06:45:25;;;;;;;8.43;7.45;;;;;;;10.45;nan;99598.19;5005411;28;97900;-72
2020/12/27 06:48:11;;;;;;;8.15;7.45;;;;;;;10.38;nan;99585.69;5015442;28;97771;-72
2020/12/27 06:50:58;;;;;;;8.10;7.35;;;;;;;10.41;nan;99585.78;5016791;28;97720;-72
2020/12/27 06:53:43;;;;;;;9.35;7.93;;;;;;;10.38;nan;99567.34;5000587;28;97126;-73
2020/12/27 06:56:19;;;;;;;9.50;7.22;;;;;;;10.40;nan;99572.63;4999539;28;98796;-73
2020/12/27 06:59:23;;;;;;;8.30;7.53;;;;;;;10.41;nan;99569.16;5014926;28;97965;-73
2020/12/27 07:02:05;;;;;;;7.72;6.47;;;;;;;10.41;nan;99580.53;5018265;28;97073;-72
2020/12/27 07:04:36;;;;;;;8.02;6.97;;;;;;;10.39;nan;99586.56;5018253;28;97841;-73
2020/12/27 07:07:04;;;;;;;8.40;7.60;;;;;;;10.35;nan;99595.19;5017559;28;99038;-73
2020/12/27 07:09:33;;;;;;;8.77;7.97;;;;;;;10.33;nan;99582.00;4999149;28;98184;-72
2020/12/27 07:12:06;;;;;;;8.43;6.90;;;;;;;10.32;nan;99587.19;4988082;28;97741;-72
2020/12/27 07:14:36;;;;;;;8.20;7.22;;;;;;;10.31;nan;99593.31;5021276;28;98114;-73
2020/12/27 07:17:06;;;;;;;8.40;7.40;;;;;;;10.31;nan;99596.81;5019810;28;97593;-72
2020/12/27 07:19:35;;;;;;;8.05;7.20;;;;;;;10.29;nan;99590.63;5023496;27;99529;-72
2020/12/27 07:22:06;;;;;;;11.07;9.27;;;;;;;10.33;nan;99595.13;5001574;28;97510;-71
2020/12/27 07:24:36;;;;;;;8.57;7.65;;;;;;;10.36;nan;99583.84;5020471;28;98114;-72
2020/12/27 07:27:07;;;;;;;9.55;7.28;;;;;;;10.35;nan;99584.69;5019294;28;99640;-72
2020/12/27 07:29:35;;;;;;;7.85;7.05;;;;;;;10.28;nan;99582.69;5009965;28;99510;-72
2020/12/27 07:32:03;;;;;;;10.00;8.67;;;;;;;10.29;nan;99574.88;5013924;28;96773;-72
2020/12/27 07:34:32;;;;;;;9.65;7.57;;;;;;;10.31;nan;99562.69;5012518;28;97766;-73
2020/12/27 07:37:02;;;;;;;8.80;7.40;;;;;;;10.31;nan;99572.31;5016543;27;97878;-72
2020/12/27 07:39:50;;;;;;;7.68;6.70;;;;;;;10.31;nan;99573.19;5016830;28;97890;-74
2020/12/27 07:42:26;;;;;;;8.30;7.35;;;;;;;10.28;nan;99572.19;5016293;28;97252;-72
2020/12/27 07:44:56;;;;;;;7.70;6.90;;;;;;;10.26;nan;99566.00;4987434;28;97278;-74
2020/12/27 07:47:25;;;;;;;7.35;6.75;;;;;;;10.28;nan;99546.84;5017800;28;99392;-74
2020/12/27 07:50:10;;;;;;;7.05;6.43;;;;;;;10.31;nan;99551.31;5017308;28;97898;-73
2020/12/27 07:52:45;;;;;;;7.88;6.35;;;;;;;10.25;nan;99546.75;5001399;28;96825;-74
2020/12/27 07:55:21;;;;;;;8.48;7.43;;;;;;;10.27;nan;99555.56;5017437;28;98045;-74
2020/12/27 07:57:49;;;;;;;6.80;6.30;;;;;;;10.29;nan;99542.50;4991180;28;98060;-74
2020/12/27 08:00:22;;;;;;;7.78;6.93;;;;;;;10.31;nan;99535.56;5013734;28;97058;-73
2020/12/27 08:02:50;;;;;;;7.95;6.70;;;;;;;10.29;nan;99519.78;5017675;28;97318;-73
2020/12/27 08:05:18;;;;;;;6.80;6.20;;;;;;;10.30;nan;99513.69;5017873;28;97956;-73
2020/12/27 08:07:46;;;;;;;6.70;6.20;;;;;;;10.35;nan;99516.44;5017541;28;99120;-74
2020/12/27 08:10:25;;;;;;;8.10;7.13;;;;;;;10.38;nan;99513.94;5017671;28;102550;-74
2020/12/27 08:12:55;;;;;;;8.00;6.68;;;;;;;10.40;nan;99507.00;5018742;28;97649;-74
2020/12/27 08:15:24;;;;;;;8.40;6.13;;;;;;;10.39;nan;99511.34;5001424;28;97624;-73
2020/12/27 08:17:59;;;;;;;6.80;6.10;;;;;;;10.35;nan;99511.19;5015199;27;99430;-73
2020/12/27 08:20:30;;;;;;;6.47;6.00;;;;;;;10.28;nan;99504.84;5019695;28;98224;-74
2020/12/27 08:23:02;;;;;;;6.03;5.55;;;;;;;10.30;nan;99507.53;5019481;28;97054;-75
2020/12/27 08:25:30;;;;;;;7.03;6.32;;;;;;;10.30;nan;99502.28;5018723;28;97822;-74
2020/12/27 08:28:00;;;;;;;6.40;5.90;;;;;;;10.30;nan;99504.91;5015701;28;98641;-74
2020/12/27 08:30:28;;;;;;;6.18;5.63;;;;;;;10.27;nan;99499.56;4997216;28;98329;-74
2020/12/27 08:33:10;;;;;;;12.20;10.45;;;;;;;10.27;nan;99505.72;5019260;28;97936;-74
2020/12/27 08:35:39;;;;;;;9.13;7.22;;;;;;;10.27;nan;99500.47;5016941;28;97519;-75
2020/12/27 08:38:29;;;;;;;5.90;5.40;;;;;;;10.25;nan;99498.63;5016187;28;97862;-73
2020/12/27 08:41:06;;;;;;;6.13;5.53;;;;;;;10.26;nan;99488.16;5017418;28;99229;-74
2020/12/27 08:44:07;;;;;;;5.63;5.13;;;;;;;10.31;nan;99485.69;4990639;28;97333;-74
2020/12/27 08:46:36;;;;;;;5.75;5.35;;;;;;;10.31;nan;99475.22;5018145;28;97458;-74
2020/12/27 08:49:09;;;;;;;6.28;5.82;;;;;;;10.34;nan;99456.91;4999526;28;99046;-75
2020/12/27 08:52:10;;;;;;;5.93;5.43;;;;;;;10.30;nan;99450.69;5017608;28;97232;-74
2020/12/27 08:54:37;;;;;;;4.90;4.60;;;;;;;10.30;nan;99442.81;5017147;28;97224;-73
2020/12/27 08:57:07;;;;;;;5.20;4.90;;;;;;;10.31;nan;99446.34;5020050;28;97365;-74
2020/12/27 09:00:07;;;;;;;5.38;4.95;;;;;;;10.34;nan;99446.44;5016367;28;97893;-75
2020/12/27 09:02:35;;;;;;;5.97;5.47;;;;;;;10.31;nan;99433.22;5001162;28;99595;-75
2020/12/27 09:05:12;;;;;;;4.72;4.38;;;;;;;10.36;nan;99434.25;5021551;28;96924;-74
2020/12/27 09:07:41;;;;;;;5.07;4.68;;;;;;;10.36;nan;99432.53;5019547;28;96911;-75
2020/12/27 09:10:21;;;;;;;4.88;4.38;;;;;;;10.35;nan;99428.09;5019592;28;98516;-75
2020/12/27 09:12:56;;;;;;;4.93;4.50;;;;;;;10.40;nan;99417.75;5019743;28;98292;-75
2020/12/27 09:15:26;;;;;;;6.65;5.95;;;;;;;10.42;nan;99397.72;5018600;28;97221;-74
2020/12/27 09:17:55;;;;;;;4.95;4.65;;;;;;;10.45;nan;99393.44;5018649;28;98551;-75
2020/12/27 09:20:23;;;;;;;5.65;5.30;;;;;;;10.46;nan;99389.06;5001139;28;98144;-74
2020/12/27 09:23:13;;;;;;;4.88;4.57;;;;;;;10.46;nan;99384.72;5019899;28;97831;-75
2020/12/27 09:25:41;;;;;;;5.30;4.90;;;;;;;10.47;nan;99385.59;5020116;28;97110;-75
2020/12/27 09:28:13;;;;;;;5.07;4.68;;;;;;;10.47;nan;99372.47;5018794;28;97820;-76
2020/12/27 09:30:45;;;;;;;6.13;5.10;;;;;;;10.47;nan;99365.50;5019514;28;98968;-75
2020/12/27 09:33:13;;;;;;;5.00;4.70;;;;;;;10.50;nan;99359.44;4997277;28;98026;-74
2020/12/27 09:35:40;;;;;;;5.35;5.07;;;;;;;10.48;nan;99345.38;5020967;28;97243;-75
2020/12/27 09:38:24;;;;;;;6.80;6.13;;;;;;;10.49;nan;99336.66;5017155;28;97241;-74
2020/12/27 09:41:36;;;;;;;15.15;11.30;;;;;;;10.57;nan;99332.53;5017224;28;98550;-74
2020/12/27 09:44:04;;;;;;;7.60;7.00;;;;;;;10.56;nan;99328.13;5013172;28;98305;-74
2020/12/27 09:46:43;;;;;;;5.68;5.10;;;;;;;10.54;nan;99325.47;5015671;28;96814;-74
2020/12/27 09:49:16;;;;;;;5.95;5.55;;;;;;;10.54;nan;99317.59;5017506;27;97634;-74
2020/12/27 09:51:43;;;;;;;6.00;5.50;;;;;;;10.53;nan;99310.53;5018521;28;99152;-74
2020/12/27 09:54:11;;;;;;;5.65;5.13;;;;;;;10.55;nan;99300.06;5019292;28;97909;-74
2020/12/27 09:56:43;;;;;;;5.93;5.43;;;;;;;10.51;nan;99299.09;5018123;28;97595;-74
2020/12/27 09:59:10;;;;;;;5.70;5.30;;;;;;;10.49;nan;99294.66;5017657;28;96804;-74
2020/12/27 10:01:38;;;;;;;5.75;5.35;;;;;;;10.48;nan;99282.38;5017324;28;99109;-73
2020/12/27 10:04:06;;;;;;;7.00;5.43;;;;;;;10.46;nan;99284.06;5019617;28;99069;-74
2020/12/27 10:06:34;;;;;;;12.85;8.77;;;;;;;10.44;nan;99283.16;5019554;28;97287;-74
2020/12/27 10:09:02;;;;;;;6.20;5.55;;;;;;;10.39;nan;99290.88;5015535;28;99225;-75
2020/12/27 10:11:29;;;;;;;5.90;5.30;;;;;;;10.40;nan;99283.91;5017023;28;97713;-74
2020/12/27 10:13:57;;;;;;;5.85;5.35;;;;;;;10.39;nan;99277.75;5015647;28;98072;-73
2020/12/27 10:16:24;;;;;;;5.80;5.40;;;;;;;10.36;nan;99268.91;5015469;28;97149;-74
2020/12/27 10:18:52;;;;;;;5.82;5.43;;;;;;;10.35;nan;99269.72;5013704;28;97113;-74
2020/12/27 10:21:20;;;;;;;6.03;5.50;;;;;;;10.33;nan;99250.44;5016050;28;98276;-71
2020/12/27 10:23:48;;;;;;;6.65;5.97;;;;;;;10.31;nan;99252.13;5015579;28;98508;-73
2020/12/27 10:26:16;;;;;;;7.18;6.38;;;;;;;10.30;nan;99245.09;5016898;27;97105;-73
2020/12/27 10:28:43;;;;;;;6.18;5.63;;;;;;;10.27;nan;99240.66;5013149;28;97265;-75
2020/12/27 10:31:11;;;;;;;5.80;5.30;;;;;;;10.27;nan;99224.91;5017090;28;98640;-73
2020/12/27 10:33:38;;;;;;;6.25;5.65;;;;;;;10.27;nan;99230.16;5017326;28;99027;-72
2020/12/27 10:36:06;;;;;;;5.70;5.30;;;;;;;10.27;nan;99216.16;5012704;28;97073;-74
2020/12/27 10:38:34;;;;;;;5.50;5.10;;;;;;;10.27;nan;99213.53;5013858;28;98496;-73
2020/12/27 10:41:13;;;;;;;6.15;5.00;;;;;;;10.28;nan;99203.06;5019652;27;99001;-73
2020/12/27 10:43:41;;;;;;;5.63;5.20;;;;;;;10.27;nan;99198.69;5016696;27;99062;-76
2020/12/27 10:46:09;;;;;;;5.28;4.90;;;;;;;10.28;nan;99182.06;5020176;28;97456;-75
2020/12/27 10:48:36;;;;;;;5.95;5.40;;;;;;;10.29;nan;99182.97;5015894;28;97402;-74
2020/12/27 10:51:04;;;;;;;5.93;5.53;;;;;;;10.29;nan;99165.50;4983570;28;99498;-76
2020/12/27 10:53:31;;;;;;;15.80;11.85;;;;;;;10.35;nan;99164.75;5000160;28;97952;-75
2020/12/27 10:56:00;;;;;;;12.85;10.77;;;;;;;10.40;nan;99168.41;5017983;28;97357;-76
2020/12/27 10:58:27;;;;;;;6.70;6.10;;;;;;;10.39;nan;99157.03;5013685;28;97494;-73
2020/12/27 11:00:55;;;;;;;6.72;5.93;;;;;;;10.39;nan;99151.78;5016847;28;99279;-73
2020/12/27 11:03:23;;;;;;;6.45;5.88;;;;;;;10.38;nan;99159.59;4990625;28;98182;-74
2020/12/27 11:05:50;;;;;;;6.25;5.75;;;;;;;10.38;nan;99146.50;5021101;28;97799;-74
2020/12/27 11:08:18;;;;;;;5.90;5.40;;;;;;;10.38;nan;99146.50;5019503;28;97202;-74
2020/12/27 11:10:46;;;;;;;6.40;5.80;;;;;;;10.37;nan;99142.06;5019673;28;99125;-73
2020/12/27 11:13:14;;;;;;;5.78;5.32;;;;;;;10.43;nan;99137.00;5020585;28;98006;-73
2020/12/27 11:15:42;;;;;;;6.65;6.07;;;;;;;10.43;nan;99134.38;5021221;28;97280;-73
2020/12/27 11:18:10;;;;;;;6.20;5.68;;;;;;;10.42;nan;99119.47;5018558;28;98768;-74
2020/12/27 11:20:37;;;;;;;6.30;5.70;;;;;;;10.39;nan;99104.53;5002403;28;97280;-73
2020/12/27 11:23:05;;;;;;;7.03;6.43;;;;;;;10.36;nan;99114.06;5020095;28;97831;-73
2020/12/27 11:25:32;;;;;;;8.60;7.65;;;;;;;10.37;nan;99097.44;5020111;28;97848;-74
2020/12/27 11:28:00;;;;;;;7.35;6.32;;;;;;;10.37;nan;99079.97;5018502;28;98171;-74
2020/12/27 11:30:28;;;;;;;6.22;5.80;;;;;;;10.39;nan;99078.28;5021181;28;97927;-74
2020/12/27 11:32:56;;;;;;;6.40;5.90;;;;;;;10.40;nan;99074.78;5018587;28;97825;-74
2020/12/27 11:35:23;;;;;;;6.53;5.93;;;;;;;10.41;nan;99076.59;5019015;28;97861;-74
2020/12/27 11:37:52;;;;;;;6.43;5.93;;;;;;;10.41;nan;99065.19;4999410;28;97958;-73
2020/12/27 11:40:37;;;;;;;6.70;6.20;;;;;;;10.43;nan;99055.63;5017734;28;98336;-75
2020/12/27 11:43:05;;;;;;;5.80;5.40;;;;;;;10.42;nan;99054.72;5018507;28;99930;-74
2020/12/27 11:45:33;;;;;;;7.25;6.65;;;;;;;10.45;nan;99041.72;5020499;28;97325;-74
2020/12/27 11:48:01;;;;;;;7.07;6.50;;;;;;;10.46;nan;99032.06;5015699;28;97047;-73
2020/12/27 11:50:29;;;;;;;9.77;8.10;;;;;;;10.46;nan;99011.06;5018062;28;98340;-73
2020/12/27 11:52:56;;;;;;;5.85;5.45;;;;;;;10.46;nan;99005.81;5016934;27;99163;-74
2020/12/27 11:55:38;;;;;;;6.90;6.35;;;;;;;10.46;nan;99001.47;5017021;28;97872;-74
2020/12/27 11:58:06;;;;;;;5.65;5.25;;;;;;;10.50;nan;99000.69;5014513;28;97169;-73
2020/12/27 12:00:34;;;;;;;6.68;6.18;;;;;;;10.54;nan;98988.53;4992584;28;98138;-73
2020/12/27 12:03:02;;;;;;;7.38;6.88;;;;;;;10.59;nan;99002.66;4985013;28;98753;-69
2020/12/27 12:05:30;;;;;;;5.75;5.25;;;;;;;10.52;nan;98999.00;4999210;28;97443;-73
2020/12/27 12:07:57;;;;;;;6.32;5.82;;;;;;;10.54;nan;98999.94;5017046;27;97275;-75
2020/12/27 12:10:24;;;;;;;6.47;5.88;;;;;;;10.52;nan;99000.75;5015554;27;99021;-73
2020/12/27 12:12:52;;;;;;;6.20;5.80;;;;;;;10.52;nan;98996.38;4996480;28;98019;-74
2020/12/27 12:15:20;;;;;;;5.55;5.10;;;;;;;10.57;nan;98983.34;5017958;27;97326;-73
2020/12/27 12:17:48;;;;;;;6.63;5.93;;;;;;;10.57;nan;98978.09;5016138;27;97646;-74
2020/12/27 12:23:02;;;;;;;5.97;5.57;;;;;;;10.59;nan;98958.03;5015921;27;98402;-74